sensor_id;sensor_type;location;lat;lon;timestamp;P1;durP1;ratioP1;P2;durP2;ratioP2
10761;SDS011;5433;50.862;4.320;2023-11-19T00:00:25;12.57;;;5.10;;
10761;SDS011;5433;50.862;4.320;2023-11-19T00:02:51;11.77;;;5.03;;
10761;SDS011;5433;50.862;4.320;2023-11-19T00:05:17;10.93;;;4.90;;
10761;SDS011;5433;50.862;4.320;2023-11-19T00:07:43;10.18;;;5.30;;
10761;SDS011;5433;50.862;4.320;2023-11-19T00:10:13;9.52;;;5.15;;
10761;SDS011;5433;50.862;4.320;2023-11-19T00:12:44;10.07;;;5.68;;
10761;SDS011;5433;50.862;4.320;2023-11-19T00:15:10;12.70;;;5.43;;
10761;SDS011;5433;50.862;4.320;2023-11-19T00:17:39;9.75;;;5.07;;
10761;SDS011;5433;50.862;4.320;2023-11-19T00:20:09;9.95;;;4.72;;
10761;SDS011;5433;50.862;4.320;2023-11-19T00:22:35;9.88;;;5.13;;
10761;SDS011;5433;50.862;4.320;2023-11-19T00:25:01;9.07;;;4.90;;
10761;SDS011;5433;50.862;4.320;2023-11-19T00:27:28;10.07;;;4.90;;
10761;SDS011;5433;50.862;4.320;2023-11-19T00:29:54;9.23;;;4.50;;
10761;SDS011;5433;50.862;4.320;2023-11-19T00:32:20;9.93;;;4.55;;
10761;SDS011;5433;50.862;4.320;2023-11-19T00:34:46;9.95;;;4.43;;
10761;SDS011;5433;50.862;4.320;2023-11-19T00:37:13;11.63;;;4.38;;
10761;SDS011;5433;50.862;4.320;2023-11-19T00:39:40;13.73;;;4.63;;
10761;SDS011;5433;50.862;4.320;2023-11-19T00:42:06;6.57;;;4.10;;
10761;SDS011;5433;50.862;4.320;2023-11-19T00:44:32;12.27;;;4.13;;
10761;SDS011;5433;50.862;4.320;2023-11-19T00:46:58;14.30;;;3.83;;
10761;SDS011;5433;50.862;4.320;2023-11-19T00:49:25;11.95;;;4.20;;
10761;SDS011;5433;50.862;4.320;2023-11-19T00:51:51;15.40;;;4.15;;
10761;SDS011;5433;50.862;4.320;2023-11-19T00:54:17;10.63;;;3.97;;
10761;SDS011;5433;50.862;4.320;2023-11-19T00:56:43;12.43;;;3.60;;
10761;SDS011;5433;50.862;4.320;2023-11-19T00:59:09;12.20;;;3.85;;
10761;SDS011;5433;50.862;4.320;2023-11-19T01:01:35;13.00;;;3.67;;
10761;SDS011;5433;50.862;4.320;2023-11-19T01:04:01;12.60;;;3.55;;
10761;SDS011;5433;50.862;4.320;2023-11-19T01:06:30;12.50;;;3.47;;
10761;SDS011;5433;50.862;4.320;2023-11-19T01:08:57;14.65;;;3.58;;
10761;SDS011;5433;50.862;4.320;2023-11-19T01:11:23;15.07;;;3.58;;
10761;SDS011;5433;50.862;4.320;2023-11-19T01:13:49;12.20;;;3.35;;
10761;SDS011;5433;50.862;4.320;2023-11-19T01:16:15;15.30;;;3.63;;
10761;SDS011;5433;50.862;4.320;2023-11-19T01:18:41;13.38;;;3.30;;
10761;SDS011;5433;50.862;4.320;2023-11-19T01:21:07;12.23;;;3.53;;
10761;SDS011;5433;50.862;4.320;2023-11-19T01:23:33;10.77;;;3.03;;
10761;SDS011;5433;50.862;4.320;2023-11-19T01:25:59;11.93;;;3.42;;
10761;SDS011;5433;50.862;4.320;2023-11-19T01:28:25;12.60;;;3.05;;
10761;SDS011;5433;50.862;4.320;2023-11-19T01:30:51;10.25;;;2.95;;
10761;SDS011;5433;50.862;4.320;2023-11-19T01:33:18;14.75;;;3.90;;
10761;SDS011;5433;50.862;4.320;2023-11-19T01:35:44;13.95;;;3.15;;
10761;SDS011;5433;50.862;4.320;2023-11-19T01:38:10;13.88;;;3.50;;
10761;SDS011;5433;50.862;4.320;2023-11-19T01:40:36;16.98;;;3.65;;
10761;SDS011;5433;50.862;4.320;2023-11-19T01:43:05;17.48;;;3.47;;
10761;SDS011;5433;50.862;4.320;2023-11-19T01:45:31;13.52;;;3.70;;
10761;SDS011;5433;50.862;4.320;2023-11-19T01:47:58;12.40;;;3.40;;
10761;SDS011;5433;50.862;4.320;2023-11-19T01:50:24;17.30;;;3.55;;
10761;SDS011;5433;50.862;4.320;2023-11-19T01:52:54;14.25;;;3.83;;
10761;SDS011;5433;50.862;4.320;2023-11-19T01:55:23;13.50;;;3.70;;
10761;SDS011;5433;50.862;4.320;2023-11-19T01:57:49;12.40;;;3.00;;
10761;SDS011;5433;50.862;4.320;2023-11-19T02:00:16;12.98;;;3.78;;
10761;SDS011;5433;50.862;4.320;2023-11-19T02:02:43;13.73;;;3.13;;
10761;SDS011;5433;50.862;4.320;2023-11-19T02:05:10;12.75;;;3.28;;
10761;SDS011;5433;50.862;4.320;2023-11-19T02:07:36;16.83;;;3.50;;
10761;SDS011;5433;50.862;4.320;2023-11-19T02:10:02;13.57;;;3.38;;
10761;SDS011;5433;50.862;4.320;2023-11-19T02:12:30;19.77;;;4.07;;
10761;SDS011;5433;50.862;4.320;2023-11-19T02:15:06;15.23;;;3.58;;
10761;SDS011;5433;50.862;4.320;2023-11-19T02:17:44;17.50;;;3.53;;
10761;SDS011;5433;50.862;4.320;2023-11-19T02:20:10;18.45;;;3.45;;
10761;SDS011;5433;50.862;4.320;2023-11-19T02:22:37;17.40;;;3.30;;
10761;SDS011;5433;50.862;4.320;2023-11-19T02:25:04;19.10;;;3.22;;
10761;SDS011;5433;50.862;4.320;2023-11-19T02:30:26;22.90;;;4.45;;
10761;SDS011;5433;50.862;4.320;2023-11-19T02:32:54;21.95;;;3.35;;
10761;SDS011;5433;50.862;4.320;2023-11-19T02:35:22;20.92;;;3.55;;
10761;SDS011;5433;50.862;4.320;2023-11-19T02:37:48;13.35;;;3.05;;
10761;SDS011;5433;50.862;4.320;2023-11-19T02:40:14;19.73;;;3.78;;
10761;SDS011;5433;50.862;4.320;2023-11-19T02:42:40;18.25;;;3.40;;
10761;SDS011;5433;50.862;4.320;2023-11-19T02:45:07;17.67;;;3.47;;
10761;SDS011;5433;50.862;4.320;2023-11-19T02:47:35;18.10;;;3.90;;
10761;SDS011;5433;50.862;4.320;2023-11-19T02:50:01;18.83;;;3.38;;
10761;SDS011;5433;50.862;4.320;2023-11-19T02:52:27;19.50;;;3.80;;
10761;SDS011;5433;50.862;4.320;2023-11-19T02:54:53;17.10;;;4.10;;
10761;SDS011;5433;50.862;4.320;2023-11-19T02:57:20;11.02;;;3.20;;
10761;SDS011;5433;50.862;4.320;2023-11-19T02:59:47;19.00;;;3.78;;
10761;SDS011;5433;50.862;4.320;2023-11-19T03:02:13;15.60;;;2.95;;
10761;SDS011;5433;50.862;4.320;2023-11-19T03:04:41;16.83;;;3.03;;
10761;SDS011;5433;50.862;4.320;2023-11-19T03:07:08;18.20;;;3.70;;
10761;SDS011;5433;50.862;4.320;2023-11-19T03:09:34;16.08;;;3.30;;
10761;SDS011;5433;50.862;4.320;2023-11-19T03:12:01;17.25;;;3.33;;
10761;SDS011;5433;50.862;4.320;2023-11-19T03:14:27;14.80;;;3.15;;
10761;SDS011;5433;50.862;4.320;2023-11-19T03:16:53;18.92;;;3.63;;
10761;SDS011;5433;50.862;4.320;2023-11-19T03:19:19;22.70;;;3.90;;
10761;SDS011;5433;50.862;4.320;2023-11-19T03:21:45;15.57;;;3.47;;
10761;SDS011;5433;50.862;4.320;2023-11-19T03:24:13;16.58;;;3.30;;
10761;SDS011;5433;50.862;4.320;2023-11-19T03:26:39;18.38;;;3.38;;
10761;SDS011;5433;50.862;4.320;2023-11-19T03:29:05;17.60;;;3.38;;
10761;SDS011;5433;50.862;4.320;2023-11-19T03:31:31;18.23;;;3.28;;
10761;SDS011;5433;50.862;4.320;2023-11-19T03:33:57;16.50;;;3.85;;
10761;SDS011;5433;50.862;4.320;2023-11-19T03:36:23;20.73;;;3.63;;
10761;SDS011;5433;50.862;4.320;2023-11-19T03:38:52;16.10;;;3.28;;
10761;SDS011;5433;50.862;4.320;2023-11-19T03:41:18;15.00;;;3.45;;
10761;SDS011;5433;50.862;4.320;2023-11-19T03:43:44;18.30;;;3.72;;
10761;SDS011;5433;50.862;4.320;2023-11-19T03:46:20;19.35;;;3.67;;
10761;SDS011;5433;50.862;4.320;2023-11-19T03:48:48;15.35;;;3.83;;
10761;SDS011;5433;50.862;4.320;2023-11-19T03:51:14;16.73;;;3.22;;
10761;SDS011;5433;50.862;4.320;2023-11-19T03:53:46;18.58;;;3.67;;
10761;SDS011;5433;50.862;4.320;2023-11-19T03:56:12;20.88;;;3.50;;
10761;SDS011;5433;50.862;4.320;2023-11-19T03:58:38;15.23;;;3.20;;
10761;SDS011;5433;50.862;4.320;2023-11-19T04:01:05;19.33;;;3.45;;
10761;SDS011;5433;50.862;4.320;2023-11-19T04:03:31;15.38;;;3.30;;
10761;SDS011;5433;50.862;4.320;2023-11-19T04:05:57;19.90;;;3.58;;
10761;SDS011;5433;50.862;4.320;2023-11-19T04:08:24;21.42;;;3.83;;
10761;SDS011;5433;50.862;4.320;2023-11-19T04:10:50;19.05;;;3.40;;
10761;SDS011;5433;50.862;4.320;2023-11-19T04:13:16;18.52;;;3.38;;
10761;SDS011;5433;50.862;4.320;2023-11-19T04:15:41;17.70;;;4.05;;
10761;SDS011;5433;50.862;4.320;2023-11-19T04:18:08;19.42;;;3.92;;
10761;SDS011;5433;50.862;4.320;2023-11-19T04:20:34;23.17;;;4.03;;
10761;SDS011;5433;50.862;4.320;2023-11-19T04:23:01;23.48;;;3.90;;
10761;SDS011;5433;50.862;4.320;2023-11-19T04:25:27;20.40;;;4.10;;
10761;SDS011;5433;50.862;4.320;2023-11-19T04:27:53;17.20;;;3.28;;
10761;SDS011;5433;50.862;4.320;2023-11-19T04:30:19;16.45;;;3.70;;
10761;SDS011;5433;50.862;4.320;2023-11-19T04:32:45;22.65;;;4.10;;
10761;SDS011;5433;50.862;4.320;2023-11-19T04:35:13;20.98;;;3.50;;
10761;SDS011;5433;50.862;4.320;2023-11-19T04:37:39;25.85;;;3.97;;
10761;SDS011;5433;50.862;4.320;2023-11-19T04:40:05;20.30;;;3.60;;
10761;SDS011;5433;50.862;4.320;2023-11-19T04:42:31;17.77;;;3.60;;
10761;SDS011;5433;50.862;4.320;2023-11-19T04:44:57;21.65;;;4.40;;
10761;SDS011;5433;50.862;4.320;2023-11-19T04:47:23;20.35;;;4.00;;
10761;SDS011;5433;50.862;4.320;2023-11-19T04:49:49;21.08;;;3.88;;
10761;SDS011;5433;50.862;4.320;2023-11-19T04:52:15;25.20;;;3.97;;
10761;SDS011;5433;50.862;4.320;2023-11-19T04:54:41;25.33;;;4.15;;
10761;SDS011;5433;50.862;4.320;2023-11-19T04:57:10;24.20;;;4.47;;
10761;SDS011;5433;50.862;4.320;2023-11-19T04:59:37;20.17;;;4.22;;
10761;SDS011;5433;50.862;4.320;2023-11-19T05:02:03;22.02;;;4.07;;
10761;SDS011;5433;50.862;4.320;2023-11-19T05:04:29;21.30;;;3.97;;
10761;SDS011;5433;50.862;4.320;2023-11-19T05:06:55;23.73;;;4.53;;
10761;SDS011;5433;50.862;4.320;2023-11-19T05:09:21;24.02;;;4.57;;
10761;SDS011;5433;50.862;4.320;2023-11-19T05:11:47;23.90;;;4.65;;
10761;SDS011;5433;50.862;4.320;2023-11-19T05:14:13;23.10;;;3.85;;
10761;SDS011;5433;50.862;4.320;2023-11-19T05:16:40;24.25;;;4.10;;
10761;SDS011;5433;50.862;4.320;2023-11-19T05:19:06;20.30;;;3.97;;
10761;SDS011;5433;50.862;4.320;2023-11-19T05:21:32;21.52;;;4.10;;
10761;SDS011;5433;50.862;4.320;2023-11-19T05:23:59;18.77;;;3.60;;
10761;SDS011;5433;50.862;4.320;2023-11-19T05:26:25;18.55;;;4.18;;
10761;SDS011;5433;50.862;4.320;2023-11-19T05:28:51;24.00;;;4.20;;
10761;SDS011;5433;50.862;4.320;2023-11-19T05:31:17;23.77;;;3.85;;
10761;SDS011;5433;50.862;4.320;2023-11-19T05:33:43;17.15;;;3.70;;
10761;SDS011;5433;50.862;4.320;2023-11-19T05:36:10;23.65;;;4.22;;
10761;SDS011;5433;50.862;4.320;2023-11-19T05:38:37;23.48;;;4.20;;
10761;SDS011;5433;50.862;4.320;2023-11-19T05:41:03;20.88;;;4.00;;
10761;SDS011;5433;50.862;4.320;2023-11-19T05:43:30;24.13;;;4.22;;
10761;SDS011;5433;50.862;4.320;2023-11-19T05:45:55;25.83;;;4.38;;
10761;SDS011;5433;50.862;4.320;2023-11-19T05:48:21;24.73;;;4.60;;
10761;SDS011;5433;50.862;4.320;2023-11-19T05:50:47;21.48;;;4.18;;
10761;SDS011;5433;50.862;4.320;2023-11-19T05:53:15;27.17;;;4.78;;
10761;SDS011;5433;50.862;4.320;2023-11-19T05:55:41;23.08;;;3.97;;
10761;SDS011;5433;50.862;4.320;2023-11-19T05:58:29;21.90;;;4.03;;
10761;SDS011;5433;50.862;4.320;2023-11-19T06:00:57;23.48;;;4.32;;
10761;SDS011;5433;50.862;4.320;2023-11-19T06:03:25;24.50;;;4.82;;
10761;SDS011;5433;50.862;4.320;2023-11-19T06:05:52;21.40;;;4.15;;
10761;SDS011;5433;50.862;4.320;2023-11-19T06:08:19;24.65;;;4.53;;
10761;SDS011;5433;50.862;4.320;2023-11-19T06:10:46;23.90;;;4.20;;
10761;SDS011;5433;50.862;4.320;2023-11-19T06:13:12;22.65;;;4.10;;
10761;SDS011;5433;50.862;4.320;2023-11-19T06:15:41;20.70;;;3.97;;
10761;SDS011;5433;50.862;4.320;2023-11-19T06:18:07;22.98;;;4.78;;
10761;SDS011;5433;50.862;4.320;2023-11-19T06:20:33;23.80;;;4.30;;
10761;SDS011;5433;50.862;4.320;2023-11-19T06:23:00;23.75;;;4.60;;
10761;SDS011;5433;50.862;4.320;2023-11-19T06:25:26;24.98;;;4.40;;
10761;SDS011;5433;50.862;4.320;2023-11-19T06:27:52;19.48;;;3.97;;
10761;SDS011;5433;50.862;4.320;2023-11-19T06:30:18;24.92;;;4.60;;
10761;SDS011;5433;50.862;4.320;2023-11-19T06:32:45;25.40;;;4.45;;
10761;SDS011;5433;50.862;4.320;2023-11-19T06:35:12;23.67;;;4.30;;
10761;SDS011;5433;50.862;4.320;2023-11-19T06:37:39;19.48;;;3.72;;
10761;SDS011;5433;50.862;4.320;2023-11-19T06:40:05;23.98;;;4.53;;
10761;SDS011;5433;50.862;4.320;2023-11-19T06:42:31;22.10;;;4.40;;
10761;SDS011;5433;50.862;4.320;2023-11-19T06:44:57;27.80;;;4.45;;
10761;SDS011;5433;50.862;4.320;2023-11-19T06:47:27;23.50;;;4.50;;
10761;SDS011;5433;50.862;4.320;2023-11-19T06:49:53;30.02;;;4.78;;
10761;SDS011;5433;50.862;4.320;2023-11-19T06:52:19;18.90;;;4.25;;
10761;SDS011;5433;50.862;4.320;2023-11-19T06:54:45;22.27;;;4.15;;
10761;SDS011;5433;50.862;4.320;2023-11-19T06:57:12;22.63;;;3.97;;
10761;SDS011;5433;50.862;4.320;2023-11-19T06:59:38;28.52;;;4.70;;
10761;SDS011;5433;50.862;4.320;2023-11-19T07:02:04;21.90;;;3.97;;
10761;SDS011;5433;50.862;4.320;2023-11-19T07:04:30;24.65;;;4.43;;
10761;SDS011;5433;50.862;4.320;2023-11-19T07:06:56;24.80;;;4.53;;
10761;SDS011;5433;50.862;4.320;2023-11-19T07:09:22;21.90;;;4.60;;
10761;SDS011;5433;50.862;4.320;2023-11-19T07:11:48;19.23;;;4.03;;
10761;SDS011;5433;50.862;4.320;2023-11-19T07:14:16;23.13;;;3.88;;
10761;SDS011;5433;50.862;4.320;2023-11-19T07:16:42;24.20;;;4.25;;
10761;SDS011;5433;50.862;4.320;2023-11-19T07:19:08;25.13;;;4.60;;
10761;SDS011;5433;50.862;4.320;2023-11-19T07:21:34;23.90;;;4.25;;
10761;SDS011;5433;50.862;4.320;2023-11-19T07:24:04;24.08;;;4.43;;
10761;SDS011;5433;50.862;4.320;2023-11-19T07:26:30;24.73;;;4.40;;
10761;SDS011;5433;50.862;4.320;2023-11-19T07:28:56;25.45;;;4.30;;
10761;SDS011;5433;50.862;4.320;2023-11-19T07:31:22;22.52;;;4.15;;
10761;SDS011;5433;50.862;4.320;2023-11-19T07:33:49;20.45;;;4.22;;
10761;SDS011;5433;50.862;4.320;2023-11-19T07:36:15;20.63;;;4.00;;
10761;SDS011;5433;50.862;4.320;2023-11-19T07:38:41;19.38;;;4.13;;
10761;SDS011;5433;50.862;4.320;2023-11-19T07:41:07;25.10;;;4.47;;
10761;SDS011;5433;50.862;4.320;2023-11-19T07:43:38;29.80;;;5.13;;
10761;SDS011;5433;50.862;4.320;2023-11-19T07:46:05;25.20;;;4.70;;
10761;SDS011;5433;50.862;4.320;2023-11-19T07:48:33;22.02;;;4.40;;
10761;SDS011;5433;50.862;4.320;2023-11-19T07:51:00;22.70;;;4.07;;
10761;SDS011;5433;50.862;4.320;2023-11-19T07:53:26;17.38;;;4.30;;
10761;SDS011;5433;50.862;4.320;2023-11-19T07:55:52;29.90;;;4.70;;
10761;SDS011;5433;50.862;4.320;2023-11-19T07:58:18;25.40;;;4.28;;
10761;SDS011;5433;50.862;4.320;2023-11-19T08:00:44;21.98;;;4.43;;
10761;SDS011;5433;50.862;4.320;2023-11-19T08:03:10;22.05;;;4.00;;
10761;SDS011;5433;50.862;4.320;2023-11-19T08:05:36;20.13;;;3.53;;
10761;SDS011;5433;50.862;4.320;2023-11-19T08:08:02;21.80;;;4.43;;
10761;SDS011;5433;50.862;4.320;2023-11-19T08:10:28;18.83;;;3.78;;
10761;SDS011;5433;50.862;4.320;2023-11-19T08:12:54;20.98;;;4.03;;
10761;SDS011;5433;50.862;4.320;2023-11-19T08:15:20;25.23;;;4.85;;
10761;SDS011;5433;50.862;4.320;2023-11-19T08:17:46;17.92;;;3.75;;
10761;SDS011;5433;50.862;4.320;2023-11-19T08:20:12;20.00;;;4.45;;
10761;SDS011;5433;50.862;4.320;2023-11-19T08:22:38;21.27;;;3.97;;
10761;SDS011;5433;50.862;4.320;2023-11-19T08:25:04;20.65;;;4.47;;
10761;SDS011;5433;50.862;4.320;2023-11-19T08:27:31;17.95;;;4.15;;
10761;SDS011;5433;50.862;4.320;2023-11-19T08:29:57;19.45;;;3.88;;
10761;SDS011;5433;50.862;4.320;2023-11-19T08:32:24;23.42;;;4.25;;
10761;SDS011;5433;50.862;4.320;2023-11-19T08:34:50;18.25;;;3.70;;
10761;SDS011;5433;50.862;4.320;2023-11-19T08:37:16;22.63;;;4.10;;
10761;SDS011;5433;50.862;4.320;2023-11-19T08:39:49;21.88;;;3.60;;
10761;SDS011;5433;50.862;4.320;2023-11-19T08:42:16;14.55;;;3.40;;
10761;SDS011;5433;50.862;4.320;2023-11-19T08:44:48;19.92;;;4.10;;
10761;SDS011;5433;50.862;4.320;2023-11-19T08:47:15;20.70;;;4.10;;
10761;SDS011;5433;50.862;4.320;2023-11-19T08:49:43;16.13;;;3.25;;
10761;SDS011;5433;50.862;4.320;2023-11-19T08:52:09;21.25;;;4.30;;
10761;SDS011;5433;50.862;4.320;2023-11-19T08:54:35;20.60;;;3.80;;
10761;SDS011;5433;50.862;4.320;2023-11-19T08:57:01;20.65;;;3.75;;
10761;SDS011;5433;50.862;4.320;2023-11-19T08:59:28;21.88;;;4.22;;
10761;SDS011;5433;50.862;4.320;2023-11-19T09:01:54;21.98;;;3.53;;
10761;SDS011;5433;50.862;4.320;2023-11-19T09:04:20;22.73;;;4.15;;
10761;SDS011;5433;50.862;4.320;2023-11-19T09:06:49;20.58;;;3.95;;
10761;SDS011;5433;50.862;4.320;2023-11-19T09:09:15;27.52;;;4.32;;
10761;SDS011;5433;50.862;4.320;2023-11-19T09:11:40;21.25;;;4.03;;
10761;SDS011;5433;50.862;4.320;2023-11-19T09:14:07;18.90;;;3.50;;
10761;SDS011;5433;50.862;4.320;2023-11-19T09:16:33;21.30;;;3.72;;
10761;SDS011;5433;50.862;4.320;2023-11-19T09:18:59;21.77;;;3.85;;
10761;SDS011;5433;50.862;4.320;2023-11-19T09:21:27;17.27;;;3.72;;
10761;SDS011;5433;50.862;4.320;2023-11-19T09:23:54;22.45;;;3.65;;
10761;SDS011;5433;50.862;4.320;2023-11-19T09:26:20;18.65;;;3.95;;
10761;SDS011;5433;50.862;4.320;2023-11-19T09:28:46;16.77;;;3.75;;
10761;SDS011;5433;50.862;4.320;2023-11-19T09:31:16;19.52;;;3.67;;
10761;SDS011;5433;50.862;4.320;2023-11-19T09:33:42;21.40;;;3.60;;
10761;SDS011;5433;50.862;4.320;2023-11-19T09:36:08;22.80;;;3.88;;
10761;SDS011;5433;50.862;4.320;2023-11-19T09:38:35;18.67;;;3.55;;
10761;SDS011;5433;50.862;4.320;2023-11-19T09:41:05;15.98;;;3.67;;
10761;SDS011;5433;50.862;4.320;2023-11-19T09:43:34;16.90;;;3.60;;
10761;SDS011;5433;50.862;4.320;2023-11-19T09:46:04;17.35;;;3.88;;
10761;SDS011;5433;50.862;4.320;2023-11-19T09:48:34;15.27;;;3.55;;
10761;SDS011;5433;50.862;4.320;2023-11-19T09:51:01;22.15;;;4.05;;
10761;SDS011;5433;50.862;4.320;2023-11-19T09:53:28;21.15;;;4.05;;
10761;SDS011;5433;50.862;4.320;2023-11-19T09:55:54;15.45;;;3.45;;
10761;SDS011;5433;50.862;4.320;2023-11-19T09:58:21;16.70;;;3.45;;
10761;SDS011;5433;50.862;4.320;2023-11-19T10:00:47;13.65;;;3.22;;
10761;SDS011;5433;50.862;4.320;2023-11-19T10:03:13;21.33;;;4.00;;
10761;SDS011;5433;50.862;4.320;2023-11-19T10:05:39;18.20;;;4.07;;
10761;SDS011;5433;50.862;4.320;2023-11-19T10:08:06;17.02;;;3.70;;
10761;SDS011;5433;50.862;4.320;2023-11-19T10:10:33;17.10;;;3.35;;
10761;SDS011;5433;50.862;4.320;2023-11-19T10:12:59;18.45;;;4.00;;
10761;SDS011;5433;50.862;4.320;2023-11-19T10:15:25;17.42;;;3.53;;
10761;SDS011;5433;50.862;4.320;2023-11-19T10:17:52;17.85;;;4.38;;
10761;SDS011;5433;50.862;4.320;2023-11-19T10:20:20;15.77;;;3.47;;
10761;SDS011;5433;50.862;4.320;2023-11-19T10:22:46;15.32;;;3.30;;
10761;SDS011;5433;50.862;4.320;2023-11-19T10:25:22;15.23;;;3.60;;
10761;SDS011;5433;50.862;4.320;2023-11-19T10:27:48;15.80;;;3.88;;
10761;SDS011;5433;50.862;4.320;2023-11-19T10:30:21;15.77;;;3.40;;
10761;SDS011;5433;50.862;4.320;2023-11-19T10:35:33;19.05;;;3.72;;
10761;SDS011;5433;50.862;4.320;2023-11-19T10:37:59;15.40;;;3.55;;
10761;SDS011;5433;50.862;4.320;2023-11-19T10:40:37;13.63;;;3.17;;
10761;SDS011;5433;50.862;4.320;2023-11-19T10:43:04;13.65;;;3.30;;
10761;SDS011;5433;50.862;4.320;2023-11-19T10:45:32;15.10;;;3.40;;
10761;SDS011;5433;50.862;4.320;2023-11-19T10:47:58;11.48;;;3.33;;
10761;SDS011;5433;50.862;4.320;2023-11-19T10:50:26;17.08;;;3.65;;
10761;SDS011;5433;50.862;4.320;2023-11-19T10:52:55;12.27;;;3.00;;
10761;SDS011;5433;50.862;4.320;2023-11-19T10:55:25;14.48;;;3.47;;
10761;SDS011;5433;50.862;4.320;2023-11-19T10:57:52;15.50;;;3.42;;
10761;SDS011;5433;50.862;4.320;2023-11-19T11:00:18;15.27;;;3.42;;
10761;SDS011;5433;50.862;4.320;2023-11-19T11:02:45;14.07;;;3.20;;
10761;SDS011;5433;50.862;4.320;2023-11-19T11:05:13;16.75;;;3.38;;
10761;SDS011;5433;50.862;4.320;2023-11-19T11:07:40;16.55;;;3.38;;
10761;SDS011;5433;50.862;4.320;2023-11-19T11:10:06;20.73;;;4.00;;
10761;SDS011;5433;50.862;4.320;2023-11-19T11:12:37;16.45;;;3.95;;
10761;SDS011;5433;50.862;4.320;2023-11-19T11:15:04;17.17;;;3.65;;
10761;SDS011;5433;50.862;4.320;2023-11-19T11:17:31;19.40;;;3.65;;
10761;SDS011;5433;50.862;4.320;2023-11-19T11:19:57;17.42;;;3.95;;
10761;SDS011;5433;50.862;4.320;2023-11-19T11:22:23;17.08;;;3.50;;
10761;SDS011;5433;50.862;4.320;2023-11-19T11:25:06;16.27;;;3.72;;
10761;SDS011;5433;50.862;4.320;2023-11-19T11:30:19;17.05;;;3.67;;
10761;SDS011;5433;50.862;4.320;2023-11-19T11:38:04;16.40;;;3.83;;
10761;SDS011;5433;50.862;4.320;2023-11-19T11:40:31;24.83;;;4.25;;
10761;SDS011;5433;50.862;4.320;2023-11-19T11:42:57;12.40;;;3.40;;
10761;SDS011;5433;50.862;4.320;2023-11-19T11:45:39;18.70;;;3.80;;
10761;SDS011;5433;50.862;4.320;2023-11-19T11:48:11;17.67;;;3.80;;
10761;SDS011;5433;50.862;4.320;2023-11-19T11:50:48;18.17;;;3.78;;
10761;SDS011;5433;50.862;4.320;2023-11-19T11:53:18;15.40;;;3.67;;
10761;SDS011;5433;50.862;4.320;2023-11-19T11:58:20;18.35;;;3.95;;
10761;SDS011;5433;50.862;4.320;2023-11-19T12:00:46;16.90;;;3.63;;
10761;SDS011;5433;50.862;4.320;2023-11-19T12:03:12;16.25;;;3.22;;
10761;SDS011;5433;50.862;4.320;2023-11-19T12:05:40;18.50;;;4.05;;
10761;SDS011;5433;50.862;4.320;2023-11-19T12:08:07;15.02;;;3.03;;
10761;SDS011;5433;50.862;4.320;2023-11-19T12:10:45;14.77;;;3.63;;
10761;SDS011;5433;50.862;4.320;2023-11-19T12:13:14;14.27;;;3.15;;
10761;SDS011;5433;50.862;4.320;2023-11-19T12:18:30;11.00;;;2.83;;
10761;SDS011;5433;50.862;4.320;2023-11-19T12:20:57;11.77;;;2.97;;
10761;SDS011;5433;50.862;4.320;2023-11-19T12:23:25;12.73;;;3.13;;
10761;SDS011;5433;50.862;4.320;2023-11-19T12:25:52;10.13;;;2.78;;
10761;SDS011;5433;50.862;4.320;2023-11-19T12:28:18;14.88;;;3.20;;
10761;SDS011;5433;50.862;4.320;2023-11-19T12:30:44;14.65;;;2.80;;
10761;SDS011;5433;50.862;4.320;2023-11-19T12:33:11;15.65;;;3.13;;
10761;SDS011;5433;50.862;4.320;2023-11-19T12:35:47;14.30;;;3.35;;
10761;SDS011;5433;50.862;4.320;2023-11-19T12:38:22;17.35;;;3.95;;
10761;SDS011;5433;50.862;4.320;2023-11-19T12:41:09;15.30;;;3.33;;
10761;SDS011;5433;50.862;4.320;2023-11-19T12:43:36;15.02;;;3.70;;
10761;SDS011;5433;50.862;4.320;2023-11-19T12:46:03;15.65;;;3.47;;
10761;SDS011;5433;50.862;4.320;2023-11-19T12:48:29;12.75;;;3.47;;
10761;SDS011;5433;50.862;4.320;2023-11-19T12:53:22;17.13;;;3.95;;
10761;SDS011;5433;50.862;4.320;2023-11-19T12:55:49;17.23;;;4.20;;
10761;SDS011;5433;50.862;4.320;2023-11-19T12:58:34;21.33;;;3.95;;
10761;SDS011;5433;50.862;4.320;2023-11-19T13:01:02;16.50;;;3.55;;
10761;SDS011;5433;50.862;4.320;2023-11-19T13:03:34;17.95;;;3.60;;
10761;SDS011;5433;50.862;4.320;2023-11-19T13:06:05;16.88;;;3.90;;
10761;SDS011;5433;50.862;4.320;2023-11-19T13:08:36;19.25;;;3.70;;
10761;SDS011;5433;50.862;4.320;2023-11-19T13:11:03;17.67;;;3.53;;
10761;SDS011;5433;50.862;4.320;2023-11-19T13:13:29;15.48;;;3.70;;
10761;SDS011;5433;50.862;4.320;2023-11-19T13:16:04;15.75;;;3.90;;
10761;SDS011;5433;50.862;4.320;2023-11-19T13:18:31;21.48;;;4.18;;
10761;SDS011;5433;50.862;4.320;2023-11-19T13:20:56;18.25;;;3.30;;
10761;SDS011;5433;50.862;4.320;2023-11-19T13:23:22;15.68;;;4.85;;
10761;SDS011;5433;50.862;4.320;2023-11-19T13:25:48;14.18;;;3.30;;
10761;SDS011;5433;50.862;4.320;2023-11-19T13:28:16;13.93;;;3.20;;
10761;SDS011;5433;50.862;4.320;2023-11-19T13:30:41;18.75;;;3.50;;
10761;SDS011;5433;50.862;4.320;2023-11-19T13:33:07;16.83;;;3.75;;
10761;SDS011;5433;50.862;4.320;2023-11-19T13:35:37;16.00;;;3.90;;
10761;SDS011;5433;50.862;4.320;2023-11-19T13:38:05;14.13;;;3.75;;
10761;SDS011;5433;50.862;4.320;2023-11-19T13:40:33;12.35;;;3.30;;
10761;SDS011;5433;50.862;4.320;2023-11-19T13:42:59;16.02;;;2.90;;
10761;SDS011;5433;50.862;4.320;2023-11-19T13:45:25;13.57;;;3.15;;
10761;SDS011;5433;50.862;4.320;2023-11-19T13:47:51;16.58;;;3.70;;
10761;SDS011;5433;50.862;4.320;2023-11-19T13:50:17;15.60;;;3.28;;
10761;SDS011;5433;50.862;4.320;2023-11-19T13:52:43;18.10;;;3.58;;
10761;SDS011;5433;50.862;4.320;2023-11-19T13:55:11;15.25;;;3.78;;
10761;SDS011;5433;50.862;4.320;2023-11-19T13:57:38;14.90;;;3.58;;
10761;SDS011;5433;50.862;4.320;2023-11-19T14:00:11;18.25;;;3.72;;
10761;SDS011;5433;50.862;4.320;2023-11-19T14:02:44;16.13;;;3.53;;
10761;SDS011;5433;50.862;4.320;2023-11-19T14:05:10;14.07;;;3.58;;
10761;SDS011;5433;50.862;4.320;2023-11-19T14:07:37;20.50;;;3.60;;
10761;SDS011;5433;50.862;4.320;2023-11-19T14:10:03;16.50;;;4.10;;
10761;SDS011;5433;50.862;4.320;2023-11-19T14:12:30;14.82;;;3.40;;
10761;SDS011;5433;50.862;4.320;2023-11-19T14:14:57;17.15;;;3.47;;
10761;SDS011;5433;50.862;4.320;2023-11-19T14:17:23;15.32;;;3.88;;
10761;SDS011;5433;50.862;4.320;2023-11-19T14:19:50;20.58;;;3.90;;
10761;SDS011;5433;50.862;4.320;2023-11-19T14:22:16;18.33;;;3.85;;
10761;SDS011;5433;50.862;4.320;2023-11-19T14:24:42;18.25;;;3.92;;
10761;SDS011;5433;50.862;4.320;2023-11-19T14:27:08;18.45;;;3.90;;
10761;SDS011;5433;50.862;4.320;2023-11-19T14:29:34;17.33;;;3.75;;
10761;SDS011;5433;50.862;4.320;2023-11-19T14:32:01;14.43;;;3.63;;
10761;SDS011;5433;50.862;4.320;2023-11-19T14:34:27;17.58;;;4.03;;
10761;SDS011;5433;50.862;4.320;2023-11-19T14:36:53;24.67;;;4.22;;
10761;SDS011;5433;50.862;4.320;2023-11-19T14:39:19;18.67;;;4.05;;
10761;SDS011;5433;50.862;4.320;2023-11-19T14:41:45;21.55;;;4.22;;
10761;SDS011;5433;50.862;4.320;2023-11-19T14:44:11;18.50;;;3.97;;
10761;SDS011;5433;50.862;4.320;2023-11-19T14:46:37;20.77;;;4.40;;
10761;SDS011;5433;50.862;4.320;2023-11-19T14:49:03;18.23;;;3.50;;
10761;SDS011;5433;50.862;4.320;2023-11-19T14:51:30;23.05;;;4.47;;
10761;SDS011;5433;50.862;4.320;2023-11-19T14:53:56;18.50;;;4.28;;
10761;SDS011;5433;50.862;4.320;2023-11-19T14:56:22;18.95;;;3.63;;
10761;SDS011;5433;50.862;4.320;2023-11-19T14:58:48;21.63;;;4.13;;
10761;SDS011;5433;50.862;4.320;2023-11-19T15:01:16;16.88;;;3.50;;
10761;SDS011;5433;50.862;4.320;2023-11-19T15:03:42;17.83;;;3.75;;
10761;SDS011;5433;50.862;4.320;2023-11-19T15:06:08;18.30;;;3.70;;
10761;SDS011;5433;50.862;4.320;2023-11-19T15:08:34;18.30;;;3.33;;